Stella, MO (64867)

8:14 AM CDT on July 25, 2016 (GMT -0500)
Farm Road 2100 | | Change Station

Elev 1335 ft 36.79 °N, 94.07 °W | Updated 17 seconds ago

Rain
Rain
76.1 °F
Feels Like 76 °F
N
3.0
Wind Variable Wind from NNW
Gusts 10.0 mph

Today
High -- | Low -- °F
--% Chance of Precip.
Yesterday
High -- | Low -- °F
Precip. -- in
Pressure 30.05 in
Visibility 10.0 miles
Clouds Scattered Clouds 2600 ft
Scattered Clouds 3300 ft
Overcast 5000 ft
Heat Index 76 °F
Dew Point 73 °F
Humidity 89%
Rainfall 0.05 in
Snow Depth Not available.
6:17 AM 8:28 PM
Waning Gibbous, 66% visible
METAR KHFJ 251250Z AUTO 34008KT 10SM VCTS SCT026 SCT033 OVC050 25/22 A3005 RMK AO2 LTG DSNT ALQS
Pressure 30.05 in
Visibility 10.0 miles
Clouds Scattered Clouds 2600 ft
Scattered Clouds 3300 ft
Overcast 5000 ft
Heat Index 76 °F
Dew Point 73 °F
Humidity 89%
Rainfall 0.05 in
Snow Depth Not available.
6:17 AM 8:28 PM
Waning Gibbous, 66% visible
METAR KHFJ 251250Z AUTO 34008KT 10SM VCTS SCT026 SCT033 OVC050 25/22 A3005 RMK AO2 LTG DSNT ALQS

10-Day Weather Forecast

Almanac

Astronomy

Jul. 25, 2016 Rise Set
Actual Time
Civil Twilight
Nautical Twilight
Astronomical Twilight
Moon
Length of Visible Light
Length of Day
Tomorrow will be .
, % of the Moon is Illuminated

Today's Extremes

State Highs State Lows

Community

WunderPhotos

Upload Photos

1,927,297 photos uploaded!

WunderBlog® & News

Nearby

Air Quality

  Air Quality AQ Index Pollutant
Not available.

Snow Depth

Station Depth Elevation

Earthquake Activity

City Distance Mag. Time & Date
Minimum magnitude displayed is 2.5.

Coastal Water Temperatures

Place Temperature

Stations

Nearby Weather Stations

Station Location Temp. Windchill Dew Point Humidity Wind Precip. Elev Updated Type
                   

Watches & Warnings

There are currently no watches in effect.